Time;durP1;ratioP1;P1;durP2;ratioP2;P2;SDS_P1;SDS_P2;PMS_P1;PMS_P2;Temp;Humidity;BMP_temperature;BMP_pressure;BME280_temperature;BME280_humidity;BME280_pressure;Samples;Min_cycle;Max_cycle;Signal;HPM_P1;HPM_P2
2022/06/14 00:03:16;;;;;;;7.43;2.72;;;;;;;;;;5013111;28;20050;-82
2022/06/14 00:05:42;;;;;;;6.22;2.30;;;;;;;;;;5014230;28;20370;-83
2022/06/14 00:08:08;;;;;;;4.78;2.30;;;;;;;;;;4997166;28;20099;-83
2022/06/14 00:10:34;;;;;;;4.63;2.45;;;;;;;;;;4997834;28;20045;-85
2022/06/14 00:13:00;;;;;;;5.15;2.08;;;;;;;;;;4997781;28;20132;-84
2022/06/14 00:15:26;;;;;;;5.43;2.15;;;;;;;;;;5014388;28;20045;-84
2022/06/14 00:17:52;;;;;;;6.60;2.20;;;;;;;;;;5014362;28;20045;-84
2022/06/14 00:20:18;;;;;;;11.98;3.03;;;;;;;;;;4997710;28;20048;-84
2022/06/14 00:22:44;;;;;;;6.63;2.63;;;;;;;;;;4997948;28;20401;-84
2022/06/14 00:25:28;;;;;;;7.50;2.60;;;;;;;;;;4997880;28;20062;-84
2022/06/14 00:27:54;;;;;;;7.50;2.78;;;;;;;;;;4998103;28;20037;-83
2022/06/14 00:30:21;;;;;;;5.80;2.25;;;;;;;;;;4997663;28;20048;-85
2022/06/14 00:32:47;;;;;;;5.85;2.67;;;;;;;;;;4997513;28;20084;-85
2022/06/14 00:35:13;;;;;;;5.38;2.13;;;;;;;;;;4997704;28;20401;-84
2022/06/14 00:37:39;;;;;;;3.30;2.22;;;;;;;;;;4997594;28;20045;-84
2022/06/14 00:40:06;;;;;;;9.43;2.28;;;;;;;;;;4997494;28;20072;-85
2022/06/14 00:42:32;;;;;;;8.95;3.17;;;;;;;;;;4997746;28;20088;-84
2022/06/14 00:45:03;;;;;;;6.93;2.58;;;;;;;;;;4997727;28;20050;-84
2022/06/14 00:47:30;;;;;;;4.05;2.30;;;;;;;;;;4997482;28;20129;-83
2022/06/14 00:49:57;;;;;;;5.25;2.63;;;;;;;;;;4997406;28;20038;-84
2022/06/14 00:52:43;;;;;;;4.38;2.30;;;;;;;;;;4997546;28;20083;-84
2022/06/14 00:55:14;;;;;;;8.02;2.42;;;;;;;;;;4997171;28;20046;-84
2022/06/14 00:57:47;;;;;;;11.25;3.08;;;;;;;;;;4997456;28;20041;-84
2022/06/14 01:00:18;;;;;;;4.97;2.00;;;;;;;;;;4997271;28;20064;-84
2022/06/14 01:02:44;;;;;;;;;;;;;;;;;;4997746;28;20490;-84
2022/06/14 01:05:15;;;;;;;4.85;2.13;;;;;;;;;;4997323;28;19924;-84
2022/06/14 01:07:48;;;;;;;5.00;2.80;;;;;;;;;;5013617;28;20115;-84
2022/06/14 01:10:19;;;;;;;4.53;2.33;;;;;;;;;;4997219;28;20042;-82
2022/06/14 01:12:47;;;;;;;6.57;2.63;;;;;;;;;;5013520;28;20053;-86
2022/06/14 01:15:27;;;;;;;4.07;2.00;;;;;;;;;;4997513;28;20087;-84
2022/06/14 01:18:03;;;;;;;5.57;2.40;;;;;;;;;;4997486;28;20568;-84
2022/06/14 01:20:29;;;;;;;7.57;2.63;;;;;;;;;;5000476;28;20507;-84
2022/06/14 01:22:56;;;;;;;4.32;2.28;;;;;;;;;;5017348;28;20136;-85
2022/06/14 01:25:23;;;;;;;6.10;2.38;;;;;;;;;;5000757;28;20837;-84
2022/06/14 01:27:49;;;;;;;5.15;1.98;;;;;;;;;;5000924;28;20044;-85
2022/06/14 01:30:19;;;;;;;7.22;2.47;;;;;;;;;;5000738;28;20046;-85
2022/06/14 01:32:52;;;;;;;6.40;2.40;;;;;;;;;;5000633;28;20041;-84
2022/06/14 01:35:20;;;;;;;7.70;2.40;;;;;;;;;;5017121;28;20095;-84
2022/06/14 01:37:48;;;;;;;6.05;2.47;;;;;;;;;;5000783;28;20029;-85
2022/06/14 01:40:14;;;;;;;5.75;2.00;;;;;;;;;;5000407;28;20052;-84
2022/06/14 01:42:59;;;;;;;3.65;2.20;;;;;;;;;;5000644;28;20045;-85
2022/06/14 01:45:25;;;;;;;6.75;2.85;;;;;;;;;;5000221;28;20045;-86
2022/06/14 01:47:59;;;;;;;4.85;2.42;;;;;;;;;;5000408;28;20132;-82
2022/06/14 01:53:23;;;;;;;5.07;2.28;;;;;;;;;;5016600;28;20128;-82
2022/06/14 01:55:59;;;;;;;4.45;2.63;;;;;;;;;;5000482;28;20042;-83
2022/06/14 01:58:25;;;;;;;6.07;2.42;;;;;;;;;;5016950;28;20041;-85
2022/06/14 02:01:01;;;;;;;5.50;2.50;;;;;;;;;;4996730;28;20094;-83
2022/06/14 02:06:30;;;;;;;5.03;2.60;;;;;;;;;;5013114;28;20494;-85
2022/06/14 02:09:01;;;;;;;5.18;2.88;;;;;;;;;;4996736;28;20414;-83
2022/06/14 02:11:27;;;;;;;;;;;;;;;;;;4997057;28;20042;-85
2022/06/14 02:13:56;;;;;;;7.75;2.90;;;;;;;;;;5012789;28;19996;-85
2022/06/14 02:16:29;;;;;;;8.30;2.85;;;;;;;;;;4996679;28;20128;-85
2022/06/14 02:19:15;;;;;;;5.22;3.22;;;;;;;;;;4996764;28;20053;-84
2022/06/14 02:21:41;;;;;;;10.85;2.95;;;;;;;;;;4996389;28;20053;-84
2022/06/14 02:24:07;;;;;;;8.43;2.80;;;;;;;;;;4996529;28;20077;-83
2022/06/14 02:26:35;;;;;;;4.00;2.58;;;;;;;;;;4996275;28;20087;-83
2022/06/14 02:29:13;;;;;;;4.55;3.05;;;;;;;;;;4996416;28;20509;-85
2022/06/14 02:31:39;;;;;;;6.72;3.05;;;;;;;;;;4995600;28;20038;-83
2022/06/14 02:34:17;;;;;;;8.65;3.08;;;;;;;;;;4996459;28;20034;-83
2022/06/14 02:36:48;;;;;;;5.78;2.75;;;;;;;;;;4996388;28;20053;-85
2022/06/14 02:39:20;;;;;;;6.78;3.22;;;;;;;;;;5012623;28;20045;-84
2022/06/14 02:41:46;;;;;;;5.80;3.53;;;;;;;;;;4996021;28;20081;-84
2022/06/14 02:44:14;;;;;;;5.05;2.97;;;;;;;;;;4996104;28;20077;-84
2022/06/14 02:46:51;;;;;;;9.77;3.40;;;;;;;;;;4995923;28;20052;-84
2022/06/14 02:49:24;;;;;;;12.82;3.88;;;;;;;;;;4995934;28;20471;-86
2022/06/14 02:51:52;;;;;;;6.18;3.08;;;;;;;;;;5012271;28;20034;-85
2022/06/14 02:54:18;;;;;;;6.93;3.40;;;;;;;;;;4995706;28;20555;-84
2022/06/14 02:56:49;;;;;;;9.52;2.70;;;;;;;;;;5012371;28;20033;-85
2022/06/14 02:59:22;;;;;;;11.40;3.58;;;;;;;;;;5012533;28;20490;-85
2022/06/14 03:01:52;;;;;;;6.68;2.92;;;;;;;;;;5011901;28;20096;-84
2022/06/14 03:04:28;;;;;;;7.60;3.35;;;;;;;;;;4995655;28;20077;-83
2022/06/14 03:07:00;;;;;;;6.70;2.78;;;;;;;;;;4995743;28;20184;-84
2022/06/14 03:09:32;;;;;;;10.90;3.08;;;;;;;;;;4995447;28;20095;-83
2022/06/14 03:12:06;;;;;;;8.00;3.63;;;;;;;;;;4995849;28;20049;-84
2022/06/14 03:14:41;;;;;;;9.70;2.88;;;;;;;;;;5011828;28;20045;-84
2022/06/14 03:17:07;;;;;;;7.38;3.00;;;;;;;;;;5011958;28;20046;-86
2022/06/14 03:19:43;;;;;;;8.05;3.15;;;;;;;;;;4995621;28;20188;-85
2022/06/14 03:22:28;;;;;;;9.60;3.17;;;;;;;;;;4995287;28;20041;-85
2022/06/14 03:25:10;;;;;;;13.05;3.13;;;;;;;;;;4995574;28;20045;-85
2022/06/14 03:27:39;;;;;;;9.60;3.25;;;;;;;;;;4995435;28;20041;-85
2022/06/14 03:30:14;;;;;;;9.82;3.15;;;;;;;;;;4995198;28;20687;-85
2022/06/14 03:32:45;;;;;;;8.10;3.22;;;;;;;;;;4995094;28;20045;-83
2022/06/14 03:35:11;;;;;;;;;;;;;;;;;;5012147;28;20557;-85
2022/06/14 03:37:37;;;;;;;7.95;3.28;;;;;;;;;;5011441;28;19968;-86
2022/06/14 03:40:13;;;;;;;9.88;2.85;;;;;;;;;;4995276;28;20076;-83
2022/06/14 03:42:40;;;;;;;9.07;2.90;;;;;;;;;;5010453;28;20046;-81
2022/06/14 03:45:07;;;;;;;7.18;3.40;;;;;;;;;;4994946;28;20124;-84
2022/06/14 03:47:33;;;;;;;10.20;3.50;;;;;;;;;;4994911;28;20042;-84
2022/06/14 03:50:10;;;;;;;12.40;3.85;;;;;;;;;;5010991;28;20048;-84
2022/06/14 03:52:53;;;;;;;8.95;3.40;;;;;;;;;;4994903;28;20501;-85
2022/06/14 03:55:19;;;;;;;10.55;3.63;;;;;;;;;;4995106;28;20046;-85
2022/06/14 03:57:54;;;;;;;10.30;3.08;;;;;;;;;;4995213;28;20038;-83
2022/06/14 04:00:32;;;;;;;9.02;2.90;;;;;;;;;;4994443;28;20058;-85
2022/06/14 04:03:08;;;;;;;6.82;3.60;;;;;;;;;;4994774;28;20135;-85
2022/06/14 04:05:46;;;;;;;8.70;3.40;;;;;;;;;;4994657;28;20042;-83
2022/06/14 04:08:39;;;;;;;6.53;3.45;;;;;;;;;;4994810;28;20131;-83
2022/06/14 04:11:12;;;;;;;6.68;3.10;;;;;;;;;;4994453;28;20052;-85
2022/06/14 04:13:45;;;;;;;8.27;2.90;;;;;;;;;;4994835;28;20052;-85
2022/06/14 04:16:25;;;;;;;7.18;3.17;;;;;;;;;;4994455;28;20449;-84
2022/06/14 04:18:55;;;;;;;8.20;3.55;;;;;;;;;;4994689;28;20510;-84
2022/06/14 04:21:24;;;;;;;7.63;3.00;;;;;;;;;;4994556;28;20398;-86
2022/06/14 04:24:09;;;;;;;9.07;3.53;;;;;;;;;;4994773;28;20397;-85
2022/06/14 04:26:53;;;;;;;21.95;3.53;;;;;;;;;;4994781;28;20038;-86
2022/06/14 04:29:22;;;;;;;9.00;3.30;;;;;;;;;;4994619;28;20048;-85
2022/06/14 04:31:51;;;;;;;8.27;3.08;;;;;;;;;;4994570;28;20046;-86
2022/06/14 04:34:21;;;;;;;8.38;3.72;;;;;;;;;;4994299;28;20038;-85
2022/06/14 04:36:55;;;;;;;8.27;3.22;;;;;;;;;;4994557;28;20038;-83
2022/06/14 04:39:31;;;;;;;10.07;3.70;;;;;;;;;;4994601;28;20426;-84
2022/06/14 04:41:57;;;;;;;6.32;3.35;;;;;;;;;;4994431;28;20371;-84
2022/06/14 04:44:28;;;;;;;11.68;3.75;;;;;;;;;;4994271;28;20092;-84
2022/06/14 04:46:59;;;;;;;8.55;3.25;;;;;;;;;;4994613;28;20621;-85
2022/06/14 04:49:27;;;;;;;9.93;2.70;;;;;;;;;;4994151;28;20038;-86
2022/06/14 04:51:53;;;;;;;7.10;3.42;;;;;;;;;;4994367;28;20042;-85
2022/06/14 04:54:21;;;;;;;7.90;3.65;;;;;;;;;;4996127;28;20053;-85
2022/06/14 04:56:56;;;;;;;5.65;3.40;;;;;;;;;;4998068;28;20034;-85
2022/06/14 04:59:27;;;;;;;8.10;3.10;;;;;;;;;;4997987;28;20049;-84
2022/06/14 05:01:57;;;;;;;8.70;3.30;;;;;;;;;;4997763;28;20046;-83
2022/06/14 05:04:30;;;;;;;9.48;3.17;;;;;;;;;;5014369;28;20037;-85
2022/06/14 05:07:03;;;;;;;5.47;2.90;;;;;;;;;;4998017;28;20050;-84
2022/06/14 05:09:38;;;;;;;5.63;2.78;;;;;;;;;;4997734;28;20049;-83
2022/06/14 05:12:25;;;;;;;5.05;2.35;;;;;;;;;;4997898;28;20394;-85
2022/06/14 05:14:57;;;;;;;9.82;3.00;;;;;;;;;;5014285;28;20521;-85
2022/06/14 05:17:27;;;;;;;8.15;3.10;;;;;;;;;;4997593;28;20471;-85
2022/06/14 05:19:58;;;;;;;6.25;2.50;;;;;;;;;;4997801;28;20045;-85
2022/06/14 05:22:40;;;;;;;3.63;2.35;;;;;;;;;;4997521;28;20049;-83
2022/06/14 05:25:06;;;;;;;7.05;2.55;;;;;;;;;;4997739;28;20044;-83
2022/06/14 05:27:35;;;;;;;7.68;3.13;;;;;;;;;;4997538;28;20038;-85
2022/06/14 05:30:23;;;;;;;4.13;2.40;;;;;;;;;;4997296;28;20049;-84
2022/06/14 05:32:52;;;;;;;5.97;2.33;;;;;;;;;;4997309;28;20164;-84
2022/06/14 05:35:18;;;;;;;6.85;2.50;;;;;;;;;;4994040;28;20077;-85
2022/06/14 05:37:52;;;;;;;5.00;2.33;;;;;;;;;;4993821;28;20581;-85
2022/06/14 05:40:28;;;;;;;8.13;1.90;;;;;;;;;;4993749;28;20136;-85
2022/06/14 05:43:01;;;;;;;8.93;2.42;;;;;;;;;;4994151;28;20042;-85
2022/06/14 05:45:27;;;;;;;9.63;2.88;;;;;;;;;;4993710;28;20050;-85
2022/06/14 05:48:04;;;;;;;5.57;2.40;;;;;;;;;;4993625;28;20052;-85
2022/06/14 05:50:34;;;;;;;5.28;2.63;;;;;;;;;;4993843;28;20046;-84
2022/06/14 05:53:05;;;;;;;7.68;2.58;;;;;;;;;;4993367;28;20042;-85
2022/06/14 05:55:35;;;;;;;5.75;1.95;;;;;;;;;;4993327;28;20042;-85
2022/06/14 05:58:06;;;;;;;8.05;2.08;;;;;;;;;;4993786;28;20129;-84
2022/06/14 06:00:31;;;;;;;;;;;;;;;;;;4993892;28;20104;-85
2022/06/14 06:03:03;;;;;;;5.55;2.17;;;;;;;;;;5009335;28;19921;-86
2022/06/14 06:05:38;;;;;;;8.23;2.83;;;;;;;;;;4991978;28;20107;-85
2022/06/14 06:08:13;;;;;;;4.93;2.90;;;;;;;;;;4993497;28;20132;-83
2022/06/14 06:10:41;;;;;;;7.65;2.65;;;;;;;;;;4992919;28;20042;-85
2022/06/14 06:13:13;;;;;;;5.32;3.50;;;;;;;;;;4982531;28;20106;-80
2022/06/14 06:15:39;;;;;;;4.88;3.40;;;;;;;;;;4984060;28;20615;-85
2022/06/14 06:18:10;;;;;;;6.32;2.70;;;;;;;;;;5005545;28;20037;-85
2022/06/14 06:20:41;;;;;;;5.70;2.50;;;;;;;;;;4983500;28;20038;-86
2022/06/14 06:23:10;;;;;;;7.30;2.95;;;;;;;;;;5016754;28;20149;-85
2022/06/14 06:25:38;;;;;;;5.25;3.13;;;;;;;;;;4983596;28;20042;-85
2022/06/14 06:28:15;;;;;;;5.05;2.90;;;;;;;;;;4981417;28;20062;-83
2022/06/14 06:30:45;;;;;;;6.50;2.38;;;;;;;;;;4981534;28;20038;-83
2022/06/14 06:33:13;;;;;;;5.22;1.75;;;;;;;;;;4990022;28;20085;-83
2022/06/14 06:35:57;;;;;;;5.78;2.70;;;;;;;;;;4982972;28;20038;-81
2022/06/14 06:38:32;;;;;;;5.57;1.90;;;;;;;;;;4978923;28;20053;-82
2022/06/14 06:43:52;;;;;;;5.82;3.20;;;;;;;;;;4998339;28;20321;-83
2022/06/14 06:46:19;;;;;;;5.10;2.40;;;;;;;;;;4981485;28;20329;-84
2022/06/14 06:48:50;;;;;;;5.82;2.63;;;;;;;;;;4983896;28;20073;-85
2022/06/14 06:51:19;;;;;;;4.47;2.78;;;;;;;;;;4982145;28;20034;-86
2022/06/14 06:53:57;;;;;;;4.88;2.60;;;;;;;;;;4981056;28;20044;-83
2022/06/14 06:56:30;;;;;;;5.45;2.55;;;;;;;;;;4999359;28;20397;-84
2022/06/14 06:59:11;;;;;;;3.30;1.92;;;;;;;;;;4985114;28;20139;-83
2022/06/14 07:01:38;;;;;;;5.05;2.45;;;;;;;;;;4985777;28;20064;-84
2022/06/14 07:04:04;;;;;;;4.95;2.03;;;;;;;;;;4986355;28;20044;-84
2022/06/14 07:06:34;;;;;;;4.47;2.15;;;;;;;;;;4982210;28;20042;-82
2022/06/14 07:09:03;;;;;;;5.95;2.58;;;;;;;;;;4980879;28;20049;-84
2022/06/14 07:11:35;;;;;;;4.05;1.77;;;;;;;;;;4975650;28;20064;-83
2022/06/14 07:14:12;;;;;;;4.18;2.00;;;;;;;;;;4996882;28;20118;-82
2022/06/14 07:16:41;;;;;;;5.32;2.00;;;;;;;;;;4980849;28;20042;-86
2022/06/14 07:19:33;;;;;;;4.35;2.17;;;;;;;;;;4980873;28;20041;-85
2022/06/14 07:22:13;;;;;;;4.45;1.50;;;;;;;;;;4989982;28;20137;-88
2022/06/14 07:24:47;;;;;;;5.45;2.28;;;;;;;;;;4979636;28;20050;-85
2022/06/14 07:27:15;;;;;;;5.82;1.90;;;;;;;;;;4981632;28;20052;-85
2022/06/14 07:29:44;;;;;;;4.25;1.98;;;;;;;;;;4996877;28;20549;-83
2022/06/14 07:32:17;;;;;;;4.03;1.65;;;;;;;;;;4997958;28;20521;-86
2022/06/14 07:34:43;;;;;;;3.88;1.70;;;;;;;;;;4981959;28;20124;-86
2022/06/14 07:37:28;;;;;;;6.55;2.10;;;;;;;;;;4997459;28;20065;-85
2022/06/14 07:40:14;;;;;;;4.95;1.40;;;;;;;;;;4997599;28;20402;-85
2022/06/14 07:42:58;;;;;;;6.57;1.85;;;;;;;;;;4979952;28;20510;-86
2022/06/14 07:45:28;;;;;;;5.90;2.22;;;;;;;;;;4979482;28;20049;-85
2022/06/14 07:47:54;;;;;;;;;;;;;;;;;;4997661;28;20049;-84
2022/06/14 07:50:29;;;;;;;2.97;1.40;;;;;;;;;;4996195;28;19929;-86
2022/06/14 07:52:55;;;;;;;6.43;1.80;;;;;;;;;;4976744;28;20117;-85
2022/06/14 07:55:25;;;;;;;2.38;1.63;;;;;;;;;;4982080;28;20142;-85
2022/06/14 07:57:54;;;;;;;3.67;1.67;;;;;;;;;;4979368;28;20052;-84
2022/06/14 08:03:13;;;;;;;6.03;1.60;;;;;;;;;;4996437;28;20457;-82
2022/06/14 08:05:41;;;;;;;5.88;2.33;;;;;;;;;;4996400;28;20078;-86
2022/06/14 08:08:09;;;;;;;4.88;2.17;;;;;;;;;;4979905;28;20045;-85
2022/06/14 08:10:42;;;;;;;3.58;1.92;;;;;;;;;;4980086;28;20037;-85
2022/06/14 08:13:09;;;;;;;4.07;1.70;;;;;;;;;;4982343;28;20037;-85
2022/06/14 08:15:37;;;;;;;4.45;1.77;;;;;;;;;;4979522;28;20100;-83
2022/06/14 08:18:09;;;;;;;3.92;1.98;;;;;;;;;;4998178;28;20370;-83
2022/06/14 08:20:47;;;;;;;3.45;1.50;;;;;;;;;;4981125;28;20430;-82
2022/06/14 08:23:30;;;;;;;3.92;1.58;;;;;;;;;;4998316;28;20505;-86
2022/06/14 08:26:01;;;;;;;4.75;1.70;;;;;;;;;;4979015;28;20046;-85
2022/06/14 08:28:47;;;;;;;3.65;1.83;;;;;;;;;;4980508;28;20193;-83
2022/06/14 08:31:30;;;;;;;2.50;1.58;;;;;;;;;;4981389;28;20120;-85
2022/06/14 08:34:02;;;;;;;3.05;1.60;;;;;;;;;;4985160;28;20390;-86
2022/06/14 08:36:38;;;;;;;3.60;1.77;;;;;;;;;;4983017;28;20097;-85
2022/06/14 08:39:17;;;;;;;4.00;1.80;;;;;;;;;;4975559;28;20034;-85
2022/06/14 08:41:47;;;;;;;4.70;1.80;;;;;;;;;;4975506;28;20046;-85
2022/06/14 08:44:17;;;;;;;4.22;1.50;;;;;;;;;;4991391;28;20446;-84
2022/06/14 08:46:54;;;;;;;3.33;1.13;;;;;;;;;;4975086;28;20038;-83
2022/06/14 08:49:39;;;;;;;2.25;1.25;;;;;;;;;;4991597;28;20129;-82
2022/06/14 08:52:35;;;;;;;3.75;1.10;;;;;;;;;;4975362;28;20050;-84
2022/06/14 08:55:33;;;;;;;2.45;1.30;;;;;;;;;;4975141;28;20042;-84
2022/06/14 08:58:16;;;;;;;4.15;1.35;;;;;;;;;;4991067;28;20073;-82
2022/06/14 09:00:49;;;;;;;2.70;1.52;;;;;;;;;;4974720;28;20066;-82
2022/06/14 09:03:25;;;;;;;3.13;1.38;;;;;;;;;;4975093;28;20137;-81
2022/06/14 09:05:57;;;;;;;3.63;1.50;;;;;;;;;;4974630;28;20318;-83
2022/06/14 09:08:23;;;;;;;2.42;1.55;;;;;;;;;;4974767;28;20133;-83
2022/06/14 09:10:52;;;;;;;3.53;1.25;;;;;;;;;;4974275;28;20622;-82
2022/06/14 09:13:28;;;;;;;3.13;1.20;;;;;;;;;;4974949;28;20279;-84
2022/06/14 09:16:06;;;;;;;1.88;0.90;;;;;;;;;;4974769;28;20580;-85
2022/06/14 09:19:12;;;;;;;4.55;1.60;;;;;;;;;;4974651;28;20101;-81
2022/06/14 09:21:44;;;;;;;2.95;1.50;;;;;;;;;;4934204;29;20069;-85
2022/06/14 09:24:21;;;;;;;4.13;1.42;;;;;;;;;;4919068;29;20043;-86
2022/06/14 09:26:53;;;;;;;3.03;1.48;;;;;;;;;;4972482;28;20052;-81
2022/06/14 09:29:28;;;;;;;2.47;1.33;;;;;;;;;;4984622;28;20088;-82
2022/06/14 09:32:08;;;;;;;2.72;1.50;;;;;;;;;;4998674;28;20038;-80
2022/06/14 09:34:53;;;;;;;3.10;1.77;;;;;;;;;;4983528;28;20403;-80
2022/06/14 09:37:37;;;;;;;3.90;1.42;;;;;;;;;;4983872;28;20089;-83
2022/06/14 09:40:16;;;;;;;2.65;1.30;;;;;;;;;;4984352;28;20088;-81
2022/06/14 09:42:48;;;;;;;2.50;1.27;;;;;;;;;;4984341;28;20176;-82
2022/06/14 09:45:23;;;;;;;4.90;1.40;;;;;;;;;;4983535;28;20084;-84
2022/06/14 09:48:06;;;;;;;3.72;1.40;;;;;;;;;;4982907;28;20046;-81
2022/06/14 09:50:33;;;;;;;3.92;1.73;;;;;;;;;;4983105;28;20125;-83
2022/06/14 09:53:18;;;;;;;3.92;1.27;;;;;;;;;;4982176;28;20125;-84
2022/06/14 09:56:07;;;;;;;4.00;1.40;;;;;;;;;;4984093;28;20073;-84
2022/06/14 09:58:45;;;;;;;2.63;1.65;;;;;;;;;;4983193;28;20088;-82
2022/06/14 10:01:25;;;;;;;5.22;1.77;;;;;;;;;;4982272;28;20399;-84
2022/06/14 10:04:05;;;;;;;2.50;1.63;;;;;;;;;;4982661;28;20043;-84
2022/06/14 10:06:38;;;;;;;4.07;1.33;;;;;;;;;;4982705;28;20752;-82
2022/06/14 10:09:17;;;;;;;3.95;1.63;;;;;;;;;;4983537;28;20041;-83
2022/06/14 10:12:02;;;;;;;4.43;1.55;;;;;;;;;;4983490;28;20509;-82
2022/06/14 10:14:37;;;;;;;1.90;1.20;;;;;;;;;;4979921;28;20084;-82
2022/06/14 10:17:21;;;;;;;5.40;2.22;;;;;;;;;;5000453;28;20037;-84
2022/06/14 10:19:55;;;;;;;3.85;1.60;;;;;;;;;;4981812;28;20049;-84
2022/06/14 10:22:40;;;;;;;2.85;1.30;;;;;;;;;;4981322;28;20038;-83
2022/06/14 10:25:19;;;;;;;2.22;1.30;;;;;;;;;;4982019;28;20045;-84
2022/06/14 10:28:13;;;;;;;3.72;1.30;;;;;;;;;;4992933;28;20037;-84
2022/06/14 10:30:59;;;;;;;1.88;1.30;;;;;;;;;;4992809;28;20056;-84
2022/06/14 10:33:44;;;;;;;3.47;1.33;;;;;;;;;;4992213;28;20045;-84
2022/06/14 10:36:20;;;;;;;6.88;1.80;;;;;;;;;;4992556;28;20076;-84
2022/06/14 10:39:05;;;;;;;2.75;1.80;;;;;;;;;;4992684;28;20041;-82
2022/06/14 10:41:40;;;;;;;4.20;1.70;;;;;;;;;;4992703;28;20140;-81
2022/06/14 10:44:24;;;;;;;3.47;1.30;;;;;;;;;;4992295;28;20133;-80
2022/06/14 10:46:50;;;;;;;3.08;1.58;;;;;;;;;;4992003;28;20046;-81
2022/06/14 10:49:26;;;;;;;3.80;1.50;;;;;;;;;;4992381;28;20034;-85
2022/06/14 10:51:55;;;;;;;1.88;1.42;;;;;;;;;;5008347;28;20057;-80
2022/06/14 10:54:29;;;;;;;3.10;1.25;;;;;;;;;;4992414;28;20088;-80
2022/06/14 10:57:04;;;;;;;3.78;1.63;;;;;;;;;;4992330;28;20470;-79
2022/06/14 10:59:39;;;;;;;4.80;1.48;;;;;;;;;;4992042;28;20069;-81
2022/06/14 11:02:24;;;;;;;5.47;2.95;;;;;;;;;;4991862;28;20066;-81
2022/06/14 11:05:06;;;;;;;3.55;1.90;;;;;;;;;;4991941;28;20050;-80
2022/06/14 11:07:57;;;;;;;2.60;1.10;;;;;;;;;;4991865;28;20580;-83
2022/06/14 11:10:42;;;;;;;2.25;1.30;;;;;;;;;;5008424;28;20508;-81
2022/06/14 11:13:08;;;;;;;1.83;1.20;;;;;;;;;;4992080;28;20030;-83
2022/06/14 11:15:56;;;;;;;1.85;1.40;;;;;;;;;;4991912;28;20038;-81
2022/06/14 11:18:29;;;;;;;1.92;1.30;;;;;;;;;;4991809;28;20041;-82
2022/06/14 11:21:09;;;;;;;4.32;1.55;;;;;;;;;;4991890;28;20043;-82
2022/06/14 11:23:41;;;;;;;4.67;1.53;;;;;;;;;;4991319;28;20077;-82
2022/06/14 11:26:27;;;;;;;2.13;1.13;;;;;;;;;;4991537;28;20291;-80
2022/06/14 11:28:55;;;;;;;3.47;1.75;;;;;;;;;;4991628;28;20100;-79
2022/06/14 11:31:31;;;;;;;1.35;1.10;;;;;;;;;;5008049;28;20085;-85
2022/06/14 11:34:03;;;;;;;4.72;1.85;;;;;;;;;;4991077;28;20038;-83
2022/06/14 11:36:48;;;;;;;2.30;1.35;;;;;;;;;;4991582;28;20049;-82
2022/06/14 11:39:17;;;;;;;3.13;1.40;;;;;;;;;;4991544;28;20042;-83
2022/06/14 11:41:47;;;;;;;2.92;1.20;;;;;;;;;;4991450;28;20136;-82
2022/06/14 11:44:16;;;;;;;3.30;1.02;;;;;;;;;;5007583;28;20419;-80
2022/06/14 11:46:42;;;;;;;1.70;1.30;;;;;;;;;;5007399;28;20049;-80
2022/06/14 11:49:24;;;;;;;1.73;1.20;;;;;;;;;;4991176;28;20099;-84
2022/06/14 11:52:03;;;;;;;1.45;0.85;;;;;;;;;;4991435;28;20540;-82
2022/06/14 11:54:39;;;;;;;2.37;0.83;;;;;;;;;;4991542;28;20049;-84
2022/06/14 11:57:12;;;;;;;2.20;1.15;;;;;;;;;;4991152;28;20453;-82
2022/06/14 11:59:44;;;;;;;2.58;1.08;;;;;;;;;;4990716;28;20107;-82
2022/06/14 12:02:38;;;;;;;2.00;0.90;;;;;;;;;;4990854;28;20084;-82
2022/06/14 12:05:07;;;;;;;0.65;0.65;;;;;;;;;;4990614;28;20054;-82
2022/06/14 12:07:38;;;;;;;2.00;0.87;;;;;;;;;;4991016;28;20077;-84
2022/06/14 12:10:04;;;;;;;;;;;;;;;;;;4992149;28;20037;-83
2022/06/14 12:12:49;;;;;;;2.40;1.20;;;;;;;;;;5011370;28;20009;-84
2022/06/14 12:15:37;;;;;;;1.90;1.23;;;;;;;;;;4995398;28;20104;-82
2022/06/14 12:18:07;;;;;;;3.92;1.50;;;;;;;;;;4995315;28;20393;-84
2022/06/14 12:20:42;;;;;;;1.67;1.10;;;;;;;;;;4993742;28;20056;-79
2022/06/14 12:23:11;;;;;;;1.73;1.10;;;;;;;;;;4990597;28;20121;-84
2022/06/14 12:29:04;;;;;;;1.13;1.02;;;;;;;;;;5007342;28;20049;-86
2022/06/14 12:31:39;;;;;;;2.35;1.25;;;;;;;;;;4990928;28;20046;-83
2022/06/14 12:34:10;;;;;;;3.33;1.13;;;;;;;;;;4990601;28;20057;-82
2022/06/14 12:36:54;;;;;;;3.00;1.20;;;;;;;;;;4990877;28;20081;-83
2022/06/14 12:39:22;;;;;;;2.42;1.30;;;;;;;;;;4990988;28;20088;-83
2022/06/14 12:41:55;;;;;;;3.90;1.38;;;;;;;;;;4991258;28;20046;-82
2022/06/14 12:44:41;;;;;;;4.38;1.33;;;;;;;;;;5007200;28;20038;-85
2022/06/14 12:47:12;;;;;;;2.75;1.00;;;;;;;;;;5007191;28;20107;-84
2022/06/14 12:49:38;;;;;;;;;;;;;;;;;;4991485;28;20049;-83
2022/06/14 12:52:06;;;;;;;1.73;1.20;;;;;;;;;;5006777;28;19921;-82
2022/06/14 12:54:41;;;;;;;2.63;1.00;;;;;;;;;;5007023;28;20049;-83
2022/06/14 12:57:12;;;;;;;2.45;1.00;;;;;;;;;;5007025;28;20417;-84
2022/06/14 12:59:38;;;;;;;;;;;;;;;;;;4990803;28;20042;-84
2022/06/14 13:02:10;;;;;;;2.40;1.25;;;;;;;;;;5008256;28;19932;-84
2022/06/14 13:04:39;;;;;;;2.13;1.13;;;;;;;;;;4990387;28;20053;-83
2022/06/14 13:07:05;;;;;;;3.38;1.33;;;;;;;;;;4990494;28;20042;-82
2022/06/14 13:09:31;;;;;;;3.05;1.45;;;;;;;;;;4990187;28;20084;-83
2022/06/14 13:12:07;;;;;;;3.55;1.52;;;;;;;;;;4990277;28;20494;-83
2022/06/14 13:14:48;;;;;;;2.17;0.90;;;;;;;;;;4991186;28;20039;-82
2022/06/14 13:17:23;;;;;;;1.52;1.42;;;;;;;;;;4995774;28;20485;-82
2022/06/14 13:19:55;;;;;;;3.85;1.55;;;;;;;;;;4998558;28;20096;-81
2022/06/14 13:22:29;;;;;;;2.03;1.02;;;;;;;;;;4998010;28;20049;-83
2022/06/14 13:24:55;;;;;;;3.38;1.23;;;;;;;;;;4996907;28;20041;-82
2022/06/14 13:27:24;;;;;;;5.35;1.35;;;;;;;;;;4993758;28;20486;-83
2022/06/14 13:29:59;;;;;;;2.97;1.00;;;;;;;;;;4993812;28;20111;-83
2022/06/14 13:32:38;;;;;;;3.03;1.35;;;;;;;;;;4993734;28;20046;-83
2022/06/14 13:35:13;;;;;;;3.95;1.10;;;;;;;;;;4993442;28;20046;-83
2022/06/14 13:37:45;;;;;;;1.45;1.10;;;;;;;;;;4993639;28;20095;-83
2022/06/14 13:40:17;;;;;;;2.65;1.20;;;;;;;;;;4993899;28;20085;-83
2022/06/14 13:42:51;;;;;;;3.20;1.35;;;;;;;;;;4993819;28;20046;-83
2022/06/14 13:45:23;;;;;;;2.67;1.10;;;;;;;;;;4996330;28;20100;-82
2022/06/14 13:47:59;;;;;;;5.07;1.30;;;;;;;;;;4997351;28;20041;-82
2022/06/14 13:50:25;;;;;;;4.05;1.40;;;;;;;;;;4997656;28;20046;-80
2022/06/14 13:52:51;;;;;;;4.30;1.52;;;;;;;;;;5014023;28;20045;-81
2022/06/14 13:55:17;;;;;;;2.13;1.25;;;;;;;;;;4997394;28;20038;-81
2022/06/14 13:57:59;;;;;;;2.00;1.17;;;;;;;;;;4997048;28;20091;-81
2022/06/14 14:00:44;;;;;;;3.58;1.63;;;;;;;;;;4996776;28;20061;-86
2022/06/14 14:03:33;;;;;;;1.27;1.02;;;;;;;;;;4988581;28;20046;-84
2022/06/14 14:06:00;;;;;;;4.20;1.50;;;;;;;;;;4977537;28;20272;-85
2022/06/14 14:08:32;;;;;;;2.33;1.20;;;;;;;;;;4977337;28;20038;-83
2022/06/14 14:11:08;;;;;;;2.58;1.40;;;;;;;;;;4978345;28;20081;-85
2022/06/14 14:13:40;;;;;;;4.60;1.45;;;;;;;;;;4978832;28;20042;-81
2022/06/14 14:16:06;;;;;;;2.17;1.27;;;;;;;;;;4992932;28;20034;-82
2022/06/14 14:18:37;;;;;;;2.53;1.40;;;;;;;;;;4983749;28;20622;-81
2022/06/14 14:21:15;;;;;;;4.10;1.92;;;;;;;;;;4977390;28;20038;-82
2022/06/14 14:23:47;;;;;;;1.52;1.10;;;;;;;;;;4976398;28;20042;-83
2022/06/14 14:26:24;;;;;;;2.35;1.30;;;;;;;;;;5004701;28;20890;-83
2022/06/14 14:28:53;;;;;;;3.50;1.10;;;;;;;;;;4996829;28;20081;-84
2022/06/14 14:31:28;;;;;;;4.10;1.38;;;;;;;;;;5009387;28;20038;-84
2022/06/14 14:33:55;;;;;;;2.05;1.50;;;;;;;;;;4981367;28;20042;-83
2022/06/14 14:36:45;;;;;;;1.45;1.35;;;;;;;;;;4976404;28;20077;-84
2022/06/14 14:39:11;;;;;;;3.08;1.73;;;;;;;;;;4976809;28;20038;-82
2022/06/14 14:41:44;;;;;;;2.42;1.20;;;;;;;;;;4976710;28;20583;-81
2022/06/14 14:44:13;;;;;;;2.58;1.30;;;;;;;;;;4992648;28;20042;-83
2022/06/14 14:46:42;;;;;;;3.05;1.17;;;;;;;;;;4976238;28;20073;-84
2022/06/14 14:49:16;;;;;;;3.42;1.35;;;;;;;;;;4992817;28;20631;-81
2022/06/14 14:51:52;;;;;;;2.78;1.65;;;;;;;;;;4995335;28;20038;-82
2022/06/14 14:54:24;;;;;;;1.92;1.27;;;;;;;;;;4983044;28;20137;-82
2022/06/14 14:56:54;;;;;;;2.15;1.42;;;;;;;;;;4977849;28;20046;-84
2022/06/14 14:59:44;;;;;;;2.17;1.20;;;;;;;;;;4977369;28;20056;-83
2022/06/14 15:05:20;;;;;;;4.00;1.70;;;;;;;;;;5017568;28;20536;-84
2022/06/14 15:07:52;;;;;;;2.65;1.40;;;;;;;;;;4979382;28;20665;-83
2022/06/14 15:10:23;;;;;;;4.43;1.77;;;;;;;;;;4978559;28;20076;-84
2022/06/14 15:12:55;;;;;;;3.00;1.25;;;;;;;;;;4996019;28;20038;-83
2022/06/14 15:15:24;;;;;;;2.08;1.50;;;;;;;;;;4987461;28;20092;-83
2022/06/14 15:20:58;;;;;;;2.03;1.50;;;;;;;;;;5012718;28;20073;-84
2022/06/14 15:23:41;;;;;;;3.42;1.42;;;;;;;;;;4994995;28;20042;-84
2022/06/14 15:26:19;;;;;;;4.28;1.65;;;;;;;;;;4994679;28;20097;-85
2022/06/14 15:28:49;;;;;;;2.80;1.77;;;;;;;;;;4994745;28;20122;-86
2022/06/14 15:31:24;;;;;;;1.55;1.40;;;;;;;;;;4994912;28;20620;-84
2022/06/14 15:33:50;;;;;;;5.32;1.58;;;;;;;;;;4995151;28;20084;-85
2022/06/14 15:36:25;;;;;;;3.95;1.40;;;;;;;;;;4995052;28;20520;-85
2022/06/14 15:38:54;;;;;;;4.80;1.60;;;;;;;;;;5011219;28;20080;-85
2022/06/14 15:41:23;;;;;;;2.35;1.10;;;;;;;;;;5011223;28;20053;-86
2022/06/14 15:43:57;;;;;;;4.15;1.65;;;;;;;;;;4995188;28;20049;-84
2022/06/14 15:46:24;;;;;;;3.03;1.60;;;;;;;;;;4991255;28;20046;-84